Time;durP1;ratioP1;P1;durP2;ratioP2;P2;SDS_P1;SDS_P2;PMS_P1;PMS_P2;Temp;Humidity;BMP_temperature;BMP_pressure;BME280_temperature;BME280_humidity;BME280_pressure;Samples;Min_cycle;Max_cycle;Signal;HPM_P1;HPM_P2
2022/09/08 05:00:22;;;;;;;1.00;0.80;;;19.30;97.20;;;;;;1749028;28;20189;-74
2022/09/08 05:01:14;;;;;;;1.45;1.10;;;19.30;97.20;;;;;;1749047;28;20214;-75
2022/09/08 05:02:06;;;;;;;1.10;0.85;;;19.30;97.20;;;;;;1748703;28;20692;-75
2022/09/08 05:02:57;;;;;;;1.90;0.90;;;19.20;97.20;;;;;;1748415;28;20195;-74
2022/09/08 05:03:52;;;;;;;1.00;0.90;;;19.20;97.20;;;;;;1748773;28;20202;-74
2022/09/08 05:04:43;;;;;;;1.35;0.90;;;19.20;97.20;;;;;;1759481;28;20197;-74
2022/09/08 05:05:36;;;;;;;1.45;0.80;;;19.20;97.20;;;;;;1762906;27;20207;-73
2022/09/08 05:06:29;;;;;;;1.70;0.90;;;19.20;97.20;;;;;;1762950;28;20660;-73
2022/09/08 05:07:20;;;;;;;4.00;1.08;;;19.20;97.20;;;;;;1762550;28;20672;-74
2022/09/08 05:08:11;;;;;;;1.80;0.90;;;19.20;97.20;;;;;;1762381;28;20193;-72
2022/09/08 05:09:05;;;;;;;1.47;1.10;;;19.20;97.20;;;;;;1755872;28;20194;-73
2022/09/08 05:09:55;;;;;;;3.13;1.10;;;19.20;97.20;;;;;;1755897;28;20194;-75
2022/09/08 05:10:49;;;;;;;2.20;1.00;;;19.20;97.20;;;;;;1755827;28;20204;-75
2022/09/08 05:11:39;;;;;;;1.73;0.90;;;19.20;97.20;;;;;;1756184;28;20587;-75
2022/09/08 05:12:32;;;;;;;1.40;1.20;;;19.20;97.20;;;;;;1755866;28;20601;-73
2022/09/08 05:13:22;;;;;;;1.55;1.00;;;19.20;97.20;;;;;;1755313;28;20656;-73
2022/09/08 05:14:14;;;;;;;2.43;0.90;;;19.20;97.20;;;;;;1754974;28;20607;-72
2022/09/08 05:15:06;;;;;;;2.15;1.20;;;19.20;97.20;;;;;;1755775;28;20194;-72
2022/09/08 05:16:03;;;;;;;4.40;0.93;;;19.20;97.20;;;;;;1754052;28;20233;-75
2022/09/08 05:16:55;;;;;;;1.67;1.10;;;19.20;97.20;;;;;;1751813;28;20210;-72
2022/09/08 05:17:46;;;;;;;1.63;0.85;;;19.10;97.20;;;;;;1750552;28;20202;-72
2022/09/08 05:18:37;;;;;;;1.20;1.00;;;19.10;97.20;;;;;;1748411;28;20663;-72
2022/09/08 05:19:28;;;;;;;1.10;0.80;;;19.10;97.20;;;;;;1751781;28;20259;-72
2022/09/08 05:20:20;;;;;;;3.00;1.00;;;19.10;97.20;;;;;;1750308;28;20195;-72
2022/09/08 05:21:11;;;;;;;1.13;0.90;;;19.10;97.20;;;;;;1750646;28;20202;-72
2022/09/08 05:22:02;;;;;;;1.10;1.00;;;19.10;97.20;;;;;;1751538;28;20194;-72
2022/09/08 05:22:53;;;;;;;1.48;0.90;;;19.10;97.20;;;;;;1751610;28;20197;-72
2022/09/08 05:23:45;;;;;;;1.30;1.03;;;19.10;97.20;;;;;;1749558;28;20197;-71
2022/09/08 05:24:36;;;;;;;1.00;0.90;;;19.10;97.20;;;;;;1751412;28;20226;-71
2022/09/08 05:25:28;;;;;;;5.33;1.07;;;19.10;97.20;;;;;;1751241;28;20198;-71
2022/09/08 05:26:21;;;;;;;1.20;0.88;;;19.10;97.20;;;;;;1746616;28;20677;-71
2022/09/08 05:27:13;;;;;;;1.13;1.00;;;19.10;97.20;;;;;;1746412;28;20230;-71
2022/09/08 05:28:03;;;;;;;1.35;0.90;;;19.10;97.20;;;;;;1748044;28;20202;-70
2022/09/08 05:28:55;;;;;;;1.87;0.93;;;19.10;97.20;;;;;;1749616;28;20208;-72
2022/09/08 05:29:46;;;;;;;1.35;1.23;;;19.10;97.20;;;;;;1751319;28;20445;-71
2022/09/08 05:30:40;;;;;;;1.50;0.90;;;19.10;97.20;;;;;;1750040;28;20676;-72
2022/09/08 05:31:33;;;;;;;1.00;0.90;;;19.10;97.20;;;;;;1750245;28;20607;-72
2022/09/08 05:32:24;;;;;;;1.75;1.00;;;19.10;97.20;;;;;;1748202;28;20202;-72
2022/09/08 05:33:18;;;;;;;1.00;0.90;;;19.10;97.20;;;;;;1748473;28;21781;-72
2022/09/08 05:34:10;;;;;;;1.58;1.00;;;19.10;97.20;;;;;;1750503;28;20235;-71
2022/09/08 05:35:00;;;;;;;1.30;0.95;;;19.10;97.20;;;;;;1751674;28;20198;-72
2022/09/08 05:35:51;;;;;;;2.07;1.00;;;19.10;97.20;;;;;;1750688;28;20198;-72
2022/09/08 05:36:43;;;;;;;2.03;1.13;;;19.20;97.20;;;;;;1750022;28;20340;-71
2022/09/08 05:37:34;;;;;;;3.47;0.90;;;19.20;97.20;;;;;;1748048;28;20448;-72
2022/09/08 05:38:26;;;;;;;1.10;1.00;;;19.20;97.20;;;;;;1750191;28;20680;-72
2022/09/08 05:39:17;;;;;;;1.95;0.90;;;19.20;97.20;;;;;;1751273;28;20463;-72
2022/09/08 05:40:09;;;;;;;1.60;0.97;;;19.20;97.20;;;;;;1751781;28;20281;-72
2022/09/08 05:41:00;;;;;;;2.40;0.90;;;19.20;97.20;;;;;;1749955;28;20210;-72
2022/09/08 05:41:52;;;;;;;1.30;0.90;;;19.20;97.20;;;;;;1752411;28;20218;-72
2022/09/08 05:42:45;;;;;;;2.08;0.75;;;19.20;97.20;;;;;;1749753;28;20735;-71
2022/09/08 05:43:37;;;;;;;1.20;0.98;;;19.20;97.20;;;;;;1751992;28;20203;-73
2022/09/08 05:44:28;;;;;;;1.30;1.00;;;19.20;97.20;;;;;;1762617;28;20626;-71
2022/09/08 05:45:20;;;;;;;2.23;1.00;;;19.20;97.20;;;;;;1762600;28;20266;-72
2022/09/08 05:46:11;;;;;;;1.20;1.00;;;19.20;97.20;;;;;;1752561;28;20414;-74
2022/09/08 05:47:04;;;;;;;3.05;0.98;;;19.20;97.20;;;;;;1747466;28;20431;-72
2022/09/08 05:47:55;;;;;;;2.08;0.90;;;19.20;97.20;;;;;;1746289;28;20249;-72
2022/09/08 05:48:47;;;;;;;1.63;1.20;;;19.20;97.20;;;;;;1749074;28;20213;-72
2022/09/08 05:49:38;;;;;;;3.20;1.20;;;19.20;97.20;;;;;;1747032;28;20202;-71
2022/09/08 05:50:34;;;;;;;1.80;1.20;;;19.20;97.20;;;;;;1749685;28;20669;-72
2022/09/08 05:51:25;;;;;;;1.65;1.10;;;19.20;97.20;;;;;;1746587;28;20195;-72
2022/09/08 05:52:17;;;;;;;1.23;1.05;;;19.20;97.20;;;;;;1751308;28;20263;-71
2022/09/08 05:53:08;;;;;;;2.15;1.00;;;19.20;97.20;;;;;;1746442;28;20605;-72
2022/09/08 05:54:00;;;;;;;1.07;0.87;;;19.20;97.20;;;;;;1748940;28;20593;-71
2022/09/08 05:54:51;;;;;;;1.00;0.80;;;19.20;97.20;;;;;;1748718;28;20445;-72
2022/09/08 05:55:43;;;;;;;1.10;1.00;;;19.20;97.20;;;;;;1750887;28;20202;-71
2022/09/08 05:56:34;;;;;;;1.33;0.80;;;19.20;97.20;;;;;;1750191;28;20226;-72
2022/09/08 05:57:27;;;;;;;2.30;0.90;;;19.20;97.20;;;;;;1747306;28;20187;-71
2022/09/08 05:58:18;;;;;;;1.00;0.85;;;19.20;97.20;;;;;;1749965;28;20484;-71
2022/09/08 05:59:11;;;;;;;2.80;1.00;;;19.20;97.20;;;;;;1748464;28;20202;-72
2022/09/08 06:00:03;;;;;;;1.80;1.00;;;19.20;97.20;;;;;;1751595;28;20202;-72
2022/09/08 06:00:59;;;;;;;1.27;0.80;;;19.20;97.20;;;;;;1749380;28;20213;-72
2022/09/08 06:01:51;;;;;;;1.33;0.88;;;19.20;97.20;;;;;;1751324;28;20242;-72
2022/09/08 06:02:43;;;;;;;1.00;0.90;;;19.20;97.20;;;;;;1748689;28;20618;-71
2022/09/08 06:03:36;;;;;;;1.20;0.80;;;19.20;97.20;;;;;;1749599;28;20197;-71
2022/09/08 06:04:27;;;;;;;1.65;0.75;;;19.30;97.20;;;;;;1750918;28;20202;-71
2022/09/08 06:05:19;;;;;;;1.15;0.95;;;19.30;97.20;;;;;;1749384;28;20198;-71
2022/09/08 06:06:12;;;;;;;1.10;1.00;;;19.30;97.20;;;;;;1747521;28;20199;-71
2022/09/08 06:07:04;;;;;;;1.15;0.93;;;19.30;97.20;;;;;;1747574;28;20210;-71
2022/09/08 06:07:55;;;;;;;1.60;0.88;;;19.30;97.20;;;;;;1750998;28;20209;-71
2022/09/08 06:08:48;;;;;;;0.97;0.87;;;19.30;97.20;;;;;;1749528;28;20193;-72
2022/09/08 06:09:39;;;;;;;2.03;0.90;;;19.30;97.20;;;;;;1751357;28;20452;-71
2022/09/08 06:10:35;;;;;;;1.00;0.70;;;19.30;97.20;;;;;;1749447;28;20278;-72
2022/09/08 06:11:27;;;;;;;1.00;0.85;;;19.30;97.20;;;;;;1748757;28;20453;-72
2022/09/08 06:12:22;;;;;;;1.00;0.90;;;19.20;97.20;;;;;;1749417;28;20190;-72
2022/09/08 06:13:13;;;;;;;0.93;0.77;;;19.20;97.20;;;;;;1751338;28;20198;-72
2022/09/08 06:14:05;;;;;;;1.50;0.90;;;19.20;97.20;;;;;;1747510;28;20281;-72
2022/09/08 06:14:56;;;;;;;1.00;0.80;;;19.20;97.20;;;;;;1749073;28;20194;-72
2022/09/08 06:15:49;;;;;;;1.10;1.00;;;19.20;97.20;;;;;;1751258;28;20252;-72
2022/09/08 06:16:40;;;;;;;0.90;0.80;;;19.20;97.20;;;;;;1747866;28;20226;-71
2022/09/08 06:17:32;;;;;;;2.13;0.90;;;19.20;97.20;;;;;;1749404;28;20195;-72
2022/09/08 06:18:25;;;;;;;1.23;0.90;;;19.20;97.20;;;;;;1751050;28;20218;-72
2022/09/08 06:19:17;;;;;;;1.00;0.82;;;19.20;97.20;;;;;;1747887;28;20645;-72
2022/09/08 06:20:09;;;;;;;0.90;0.70;;;19.20;97.20;;;;;;1751187;28;20222;-71
2022/09/08 06:21:05;;;;;;;1.02;0.75;;;19.20;97.20;;;;;;1747833;28;20186;-72
2022/09/08 06:21:57;;;;;;;1.15;0.80;;;19.20;97.20;;;;;;1751713;28;20274;-71
2022/09/08 06:22:48;;;;;;;1.63;0.90;;;19.20;97.20;;;;;;1749796;28;20240;-71
2022/09/08 06:23:40;;;;;;;1.27;0.70;;;19.20;97.20;;;;;;1749980;28;20208;-70
2022/09/08 06:24:30;;;;;;;1.45;0.90;;;19.20;97.20;;;;;;1750766;28;20209;-72
2022/09/08 06:25:22;;;;;;;1.00;0.90;;;19.20;97.20;;;;;;1750833;28;20190;-71
2022/09/08 06:26:27;;;;;;;1.45;0.90;;;19.20;97.20;;;;;;1751110;28;20339;-72
2022/09/08 06:27:26;;;;;;;0.90;0.75;;;19.20;97.20;;;;;;1750198;28;20578;-72
2022/09/08 06:28:29;;;;;;;1.92;0.95;;;19.20;97.20;;;;;;1745678;28;20210;-71
2022/09/08 06:29:37;;;;;;;3.28;1.00;;;19.20;97.20;;;;;;1748646;28;20201;-71
2022/09/08 06:30:28;;;;;;;0.95;0.75;;;19.20;97.20;;;;;;1745976;28;20213;-70
2022/09/08 06:31:27;;;;;;;1.27;1.10;;;19.20;97.20;;;;;;1746382;28;20209;-71
2022/09/08 06:32:25;;;;;;;1.98;0.80;;;19.20;97.20;;;;;;1747650;28;20202;-72
2022/09/08 06:33:22;;;;;;;0.90;0.77;;;19.20;97.20;;;;;;1750423;28;20586;-72
2022/09/08 06:34:19;;;;;;;1.73;0.93;;;19.20;97.20;;;;;;1748155;28;20833;-71
2022/09/08 06:35:14;;;;;;;1.63;0.85;;;19.20;97.20;;;;;;1750771;28;20205;-72
2022/09/08 06:36:13;;;;;;;2.42;1.00;;;19.20;97.20;;;;;;1749273;28;20232;-72
2022/09/08 06:37:08;;;;;;;2.03;1.05;;;19.20;97.20;;;;;;1746617;28;20218;-72
2022/09/08 06:38:02;;;;;;;2.45;0.85;;;19.20;97.20;;;;;;1750970;28;20187;-71
2022/09/08 06:38:57;;;;;;;1.17;0.90;;;19.20;97.20;;;;;;1747127;28;20197;-72
2022/09/08 06:39:54;;;;;;;1.40;1.08;;;19.20;97.20;;;;;;1747377;28;20232;-71
2022/09/08 06:40:50;;;;;;;1.83;0.80;;;19.20;97.20;;;;;;1751202;28;20207;-70
2022/09/08 06:41:46;;;;;;;0.80;0.80;;;19.20;97.20;;;;;;1749054;28;20260;-70
2022/09/08 06:42:46;;;;;;;2.88;0.80;;;19.20;97.20;;;;;;1749911;28;20246;-72
2022/09/08 06:43:41;;;;;;;1.35;1.02;;;19.20;97.20;;;;;;1746146;28;20198;-72
2022/09/08 06:44:37;;;;;;;1.40;1.00;;;19.20;97.20;;;;;;1746659;28;20193;-72
2022/09/08 06:45:33;;;;;;;1.60;0.80;;;19.20;97.20;;;;;;1746803;28;20210;-72
2022/09/08 06:46:29;;;;;;;1.48;0.98;;;19.20;97.20;;;;;;1747576;28;20273;-72
2022/09/08 06:47:23;;;;;;;1.45;0.90;;;19.20;97.20;;;;;;1748628;28;20594;-74
2022/09/08 06:48:24;;;;;;;0.82;0.70;;;19.20;97.20;;;;;;1748990;28;20242;-72
2022/09/08 06:49:16;;;;;;;0.90;0.73;;;19.20;97.20;;;;;;1747382;28;20194;-72
2022/09/08 06:50:12;;;;;;;0.90;0.80;;;19.20;97.20;;;;;;1751139;28;20198;-72
2022/09/08 06:51:16;;;;;;;2.38;1.00;;;19.30;97.20;;;;;;1748999;28;20216;-74
2022/09/08 06:52:21;;;;;;;1.73;0.98;;;19.30;97.20;;;;;;1748603;28;20195;-73
2022/09/08 06:53:17;;;;;;;1.60;0.80;;;19.30;97.20;;;;;;1748381;28;20221;-72
2022/09/08 06:54:45;;;;;;;1.65;0.93;;;19.30;97.20;;;;;;1750779;28;20475;-72
2022/09/08 06:55:40;;;;;;;1.10;0.70;;;19.30;97.20;;;;;;1733109;28;20637;-72
2022/09/08 06:56:47;;;;;;;2.10;1.00;;;19.40;97.20;;;;;;1748357;28;20207;-73
2022/09/08 06:57:47;;;;;;;1.27;0.90;;;19.40;97.20;;;;;;1748568;28;20681;-72
2022/09/08 06:58:41;;;;;;;1.83;0.90;;;19.40;97.20;;;;;;1748804;28;20584;-72
2022/09/08 06:59:47;;;;;;;1.40;0.90;;;19.40;97.20;;;;;;1747989;28;20206;-72
2022/09/08 07:00:45;;;;;;;1.17;0.95;;;19.40;97.20;;;;;;1747084;28;20198;-74
2022/09/08 07:01:44;;;;;;;1.40;0.75;;;19.40;97.20;;;;;;1750332;28;20691;-72
2022/09/08 07:03:03;;;;;;;1.90;1.00;;;19.40;97.20;;;;;;1749231;28;20212;-72
2022/09/08 07:04:13;;;;;;;1.88;0.90;;;19.40;97.20;;;;;;1747154;28;20680;-73
2022/09/08 07:05:16;;;;;;;2.05;1.00;;;19.30;97.20;;;;;;1750127;28;20205;-73
2022/09/08 07:06:09;;;;;;;0.88;0.80;;;19.30;97.20;;;;;;1750576;28;20190;-72
2022/09/08 07:07:08;;;;;;;1.20;0.88;;;19.30;97.20;;;;;;1749176;28;20252;-73
2022/09/08 07:08:09;;;;;;;1.35;0.90;;;19.30;97.20;;;;;;1749601;28;20327;-73
2022/09/08 07:09:08;;;;;;;1.48;1.17;;;19.30;97.20;;;;;;1748601;28;20576;-72
2022/09/08 07:10:08;;;;;;;1.35;0.90;;;19.30;97.20;;;;;;1749508;28;20277;-72
2022/09/08 07:11:08;;;;;;;1.10;0.80;;;19.30;97.20;;;;;;1752681;28;20198;-72
2022/09/08 07:12:15;;;;;;;1.15;0.80;;;19.30;97.20;;;;;;1748639;28;20194;-72
2022/09/08 07:13:19;;;;;;;1.35;0.80;;;19.30;97.20;;;;;;1749653;28;20323;-72
2022/09/08 07:14:33;;;;;;;2.70;1.00;;;19.30;97.20;;;;;;1748073;28;20202;-73
2022/09/08 07:15:46;;;;;;;2.20;0.85;;;19.30;97.20;;;;;;1729875;28;20591;-74
2022/09/08 07:16:42;;;;;;;1.60;0.88;;;19.30;97.20;;;;;;1745088;28;20911;-76
2022/09/08 07:17:40;;;;;;;1.80;1.00;;;19.30;97.20;;;;;;1745929;28;20198;-73
2022/09/08 07:18:38;;;;;;;2.00;0.80;;;19.30;97.20;;;;;;1748608;28;20201;-72
2022/09/08 07:19:34;;;;;;;2.20;1.00;;;19.30;97.20;;;;;;1747634;28;20564;-72
2022/09/08 07:20:30;;;;;;;1.25;0.90;;;19.30;97.20;;;;;;1746570;28;20282;-73
2022/09/08 07:21:29;;;;;;;4.53;0.98;;;19.30;97.20;;;;;;1748693;28;20206;-73
2022/09/08 07:22:31;;;;;;;2.10;0.80;;;19.30;97.20;;;;;;1748338;28;20201;-72
2022/09/08 07:23:33;;;;;;;1.10;0.90;;;19.40;97.20;;;;;;1748700;28;20212;-72
2022/09/08 07:24:29;;;;;;;1.98;0.90;;;19.40;97.20;;;;;;1748673;28;20294;-73
2022/09/08 07:25:26;;;;;;;1.30;0.80;;;19.40;97.20;;;;;;1749580;28;20190;-73
2022/09/08 07:26:23;;;;;;;0.90;0.70;;;19.40;97.20;;;;;;1747876;28;20210;-73
2022/09/08 07:27:15;;;;;;;1.30;0.77;;;19.40;97.20;;;;;;1746956;28;20676;-72
2022/09/08 07:28:12;;;;;;;0.80;0.60;;;19.50;97.20;;;;;;1748999;28;20793;-73
2022/09/08 07:29:07;;;;;;;1.20;0.75;;;19.50;97.20;;;;;;1749125;28;20189;-73
2022/09/08 07:30:03;;;;;;;1.48;0.70;;;19.50;97.20;;;;;;1747518;28;20187;-73
2022/09/08 07:30:58;;;;;;;1.00;0.85;;;19.50;97.20;;;;;;1747065;28;20878;-73
2022/09/08 07:31:51;;;;;;;1.65;0.70;;;19.60;97.20;;;;;;1746733;28;20205;-73
2022/09/08 07:32:46;;;;;;;1.25;1.00;;;19.60;97.20;;;;;;1747936;28;20200;-74
2022/09/08 07:33:40;;;;;;;0.80;0.70;;;19.60;97.20;;;;;;1748316;28;20214;-72
2022/09/08 07:34:35;;;;;;;1.35;0.80;;;19.60;97.20;;;;;;1748568;28;20194;-73
2022/09/08 07:35:45;;;;;;;1.20;0.80;;;19.60;97.20;;;;;;1746549;28;20746;-72
2022/09/08 07:36:44;;;;;;;1.20;0.85;;;19.60;97.20;;;;;;1746790;28;20191;-72
2022/09/08 07:37:40;;;;;;;1.33;0.82;;;19.60;97.20;;;;;;1747256;28;20182;-73
2022/09/08 07:38:37;;;;;;;1.00;0.80;;;19.70;97.20;;;;;;1746813;28;21227;-73
2022/09/08 07:39:37;;;;;;;1.00;0.80;;;19.70;97.20;;;;;;1747572;28;20182;-73
2022/09/08 07:40:38;;;;;;;1.92;0.90;;;19.70;97.20;;;;;;1748182;28;20248;-74
2022/09/08 07:41:34;;;;;;;2.40;1.17;;;19.70;97.20;;;;;;1747604;28;20233;-73
2022/09/08 07:42:25;;;;;;;1.40;0.85;;;19.70;97.20;;;;;;1747675;28;20638;-72
2022/09/08 07:43:17;;;;;;;1.50;1.00;;;19.70;97.20;;;;;;1748816;28;21722;-73
2022/09/08 07:44:13;;;;;;;1.70;0.77;;;19.70;97.20;;;;;;1747706;28;20229;-73
2022/09/08 07:45:11;;;;;;;3.67;1.13;;;19.70;97.20;;;;;;1748531;28;20202;-72
2022/09/08 07:46:19;;;;;;;1.40;1.08;;;19.70;97.20;;;;;;1747591;28;20206;-72
2022/09/08 07:47:36;;;;;;;2.25;0.90;;;19.80;97.20;;;;;;1746620;28;20215;-73
2022/09/08 07:48:35;;;;;;;2.47;0.90;;;19.80;97.20;;;;;;1747809;28;20225;-74
2022/09/08 07:49:33;;;;;;;1.40;0.80;;;19.80;97.20;;;;;;1747461;28;20274;-74
2022/09/08 07:51:49;;;;;;;2.08;0.82;;;19.80;97.20;;;;;;1746567;28;20195;-72
2022/09/08 07:52:45;;;;;;;2.50;1.10;;;19.80;97.20;;;;;;1746870;28;20213;-72
2022/09/08 07:53:51;;;;;;;1.42;0.95;;;19.80;97.20;;;;;;1749524;28;20186;-72
2022/09/08 07:54:56;;;;;;;1.55;0.80;;;19.80;97.20;;;;;;1749759;28;20202;-72
2022/09/08 07:55:48;;;;;;;1.50;0.88;;;19.90;97.20;;;;;;1747481;28;20575;-72
2022/09/08 07:56:41;;;;;;;2.20;0.80;;;19.90;97.20;;;;;;1747792;28;20201;-72
2022/09/08 07:57:41;;;;;;;1.42;0.90;;;19.90;97.20;;;;;;1751108;28;20562;-72
2022/09/08 07:58:38;;;;;;;1.10;0.85;;;19.90;97.20;;;;;;1747348;28;20194;-72
2022/09/08 07:59:35;;;;;;;1.00;0.75;;;19.90;97.20;;;;;;1747429;28;20191;-73
2022/09/08 08:00:34;;;;;;;2.00;0.95;;;19.90;97.20;;;;;;1747190;28;20404;-72
2022/09/08 08:01:34;;;;;;;1.13;0.80;;;19.90;97.20;;;;;;1747332;28;20222;-72
2022/09/08 08:02:52;;;;;;;1.23;0.80;;;19.90;97.20;;;;;;1747418;28;20202;-74
2022/09/08 08:03:54;;;;;;;2.65;1.00;;;19.90;97.20;;;;;;1747354;28;20277;-73
2022/09/08 08:05:00;;;;;;;2.00;0.80;;;19.90;97.20;;;;;;1747362;28;20195;-72
2022/09/08 08:05:59;;;;;;;1.30;0.80;;;19.90;97.20;;;;;;1750193;28;20190;-72
2022/09/08 08:06:52;;;;;;;2.15;0.82;;;19.90;97.20;;;;;;1747163;28;20689;-72
2022/09/08 08:07:54;;;;;;;1.45;0.70;;;19.90;97.20;;;;;;1748207;28;20675;-72
2022/09/08 08:08:55;;;;;;;1.88;0.90;;;19.90;97.20;;;;;;1747248;28;20222;-73
2022/09/08 08:09:53;;;;;;;1.05;0.80;;;20.00;97.20;;;;;;1747417;28;20202;-72
2022/09/08 08:10:50;;;;;;;1.83;0.98;;;20.00;97.20;;;;;;1748735;28;20206;-72
2022/09/08 08:11:49;;;;;;;1.33;0.75;;;20.10;97.20;;;;;;1750709;28;20182;-72
2022/09/08 08:12:50;;;;;;;2.03;1.05;;;20.10;97.20;;;;;;1751055;28;20237;-72
2022/09/08 08:13:55;;;;;;;1.90;1.00;;;20.20;97.20;;;;;;1750550;28;20551;-72
2022/09/08 08:14:51;;;;;;;1.10;0.80;;;20.20;97.20;;;;;;1747428;28;20191;-72
2022/09/08 08:15:46;;;;;;;1.00;0.70;;;20.30;97.20;;;;;;1748513;28;20195;-72
2022/09/08 08:16:51;;;;;;;1.27;0.90;;;20.30;97.20;;;;;;1750836;28;20209;-72
2022/09/08 08:17:49;;;;;;;1.35;0.70;;;20.40;97.20;;;;;;1750665;28;20191;-72
2022/09/08 08:18:51;;;;;;;1.60;0.80;;;20.40;97.20;;;;;;1750460;28;20197;-73
2022/09/08 08:20:00;;;;;;;1.40;0.90;;;20.40;97.20;;;;;;1751181;28;20187;-73
2022/09/08 08:20:59;;;;;;;1.00;0.68;;;20.50;97.20;;;;;;1748280;28;20198;-72
2022/09/08 08:21:58;;;;;;;1.40;1.05;;;20.50;97.20;;;;;;1751058;28;20190;-73
2022/09/08 08:23:10;;;;;;;1.23;0.90;;;20.50;97.20;;;;;;1750428;28;20237;-72
2022/09/08 08:24:16;;;;;;;2.05;0.90;;;20.50;97.20;;;;;;1747770;28;20585;-72
2022/09/08 08:25:16;;;;;;;1.30;0.82;;;20.50;97.20;;;;;;1747532;28;20250;-72
2022/09/08 08:26:23;;;;;;;1.88;0.95;;;20.50;97.20;;;;;;1747643;28;20191;-72
2022/09/08 08:27:26;;;;;;;1.85;0.85;;;20.50;97.20;;;;;;1749554;28;20269;-73
2022/09/08 08:28:19;;;;;;;2.28;1.30;;;20.60;97.20;;;;;;1747601;28;20313;-73
2022/09/08 08:29:27;;;;;;;0.90;0.70;;;20.60;97.20;;;;;;1748198;28;20202;-72
2022/09/08 08:30:20;;;;;;;1.45;0.95;;;20.70;97.20;;;;;;1747831;28;20182;-73
2022/09/08 08:31:28;;;;;;;1.83;1.50;;;20.70;97.20;;;;;;1751245;28;20206;-72
2022/09/08 08:32:27;;;;;;;2.22;1.23;;;20.70;97.20;;;;;;1747605;28;20685;-72
2022/09/08 08:33:23;;;;;;;1.20;0.80;;;20.70;97.20;;;;;;1747706;28;20236;-72
2022/09/08 08:34:22;;;;;;;3.65;1.05;;;20.80;97.20;;;;;;1747691;28;20194;-71
2022/09/08 08:35:20;;;;;;;2.63;1.00;;;20.80;97.20;;;;;;1748628;28;20698;-72
2022/09/08 08:36:16;;;;;;;1.90;1.13;;;20.80;97.20;;;;;;1750919;28;20190;-71
2022/09/08 08:37:17;;;;;;;1.52;1.30;;;20.80;97.20;;;;;;1750291;28;20229;-72
2022/09/08 08:38:15;;;;;;;1.90;0.90;;;20.90;97.20;;;;;;1751271;28;20189;-72
2022/09/08 08:39:15;;;;;;;2.10;1.00;;;20.90;97.20;;;;;;1750347;28;20195;-72
2022/09/08 08:40:23;;;;;;;1.92;1.20;;;21.00;97.20;;;;;;1751455;28;20195;-72
2022/09/08 08:41:24;;;;;;;1.48;0.90;;;21.00;97.20;;;;;;1747559;28;20277;-72
2022/09/08 08:42:32;;;;;;;1.20;0.95;;;21.00;97.20;;;;;;1751857;28;20191;-72
2022/09/08 08:43:59;;;;;;;1.10;0.88;;;21.00;97.20;;;;;;1747645;28;20187;-72
2022/09/08 08:45:05;;;;;;;1.35;1.13;;;21.10;97.20;;;;;;1747515;28;20191;-72
2022/09/08 08:46:12;;;;;;;2.40;1.10;;;21.20;97.20;;;;;;1747809;28;20213;-72
2022/09/08 08:47:24;;;;;;;1.23;0.90;;;21.30;97.20;;;;;;1747395;28;20229;-72
2022/09/08 08:48:28;;;;;;;1.55;0.80;;;21.40;97.20;;;;;;1748105;28;20213;-73
2022/09/08 08:49:50;;;;;;;0.85;0.70;;;21.40;97.20;;;;;;1749035;28;20195;-73
2022/09/08 08:51:14;;;;;;;1.25;0.90;;;21.40;97.20;;;;;;1748650;28;20198;-73
2022/09/08 08:52:27;;;;;;;1.55;1.00;;;21.50;97.20;;;;;;1737284;28;20202;-72
2022/09/08 08:53:51;;;;;;;1.85;1.10;;;21.50;97.20;;;;;;1748929;28;20260;-72
2022/09/08 08:54:53;;;;;;;2.25;1.00;;;21.50;97.20;;;;;;1735802;28;20210;-72
2022/09/08 08:55:55;;;;;;;1.27;1.00;;;21.50;97.20;;;;;;1748827;28;20199;-72
2022/09/08 08:56:56;;;;;;;1.80;1.10;;;21.40;97.20;;;;;;1748496;28;20202;-73
2022/09/08 08:58:00;;;;;;;1.00;0.90;;;21.30;97.20;;;;;;1748446;28;20207;-73
2022/09/08 08:59:27;;;;;;;1.25;0.82;;;21.30;97.20;;;;;;1748865;28;20217;-73
2022/09/08 09:00:19;;;;;;;1.45;1.10;;;21.30;97.20;;;;;;1733520;28;20201;-73
2022/09/08 09:01:26;;;;;;;1.23;1.05;;;21.30;97.20;;;;;;1748841;28;20198;-73
2022/09/08 09:02:32;;;;;;;2.25;1.13;;;21.30;97.20;;;;;;1752557;28;20706;-73
2022/09/08 09:03:50;;;;;;;2.55;1.30;;;21.30;97.20;;;;;;1750602;28;20207;-74
2022/09/08 09:05:13;;;;;;;1.33;0.88;;;21.20;97.20;;;;;;1751388;28;20197;-73
2022/09/08 09:06:18;;;;;;;1.35;0.93;;;21.20;97.20;;;;;;1751129;28;20191;-73
2022/09/08 09:07:35;;;;;;;2.00;1.15;;;21.20;97.20;;;;;;1749887;28;20233;-75
2022/09/08 09:08:54;;;;;;;2.60;1.00;;;21.20;97.20;;;;;;1752353;28;20202;-73
2022/09/08 09:10:23;;;;;;;1.35;1.10;;;21.20;97.20;;;;;;1752549;28;20210;-73
2022/09/08 09:11:33;;;;;;;1.13;1.02;;;21.30;97.20;;;;;;1744742;28;20199;-73
2022/09/08 09:12:49;;;;;;;1.10;0.90;;;21.40;97.20;;;;;;1747962;28;20252;-72
2022/09/08 09:13:58;;;;;;;2.20;0.98;;;21.40;97.20;;;;;;1737594;28;20684;-72
2022/09/08 09:15:13;;;;;;;1.30;0.85;;;21.50;97.20;;;;;;1748307;28;20228;-72
2022/09/08 09:16:19;;;;;;;1.23;1.13;;;21.60;97.20;;;;;;1752354;28;20189;-73
2022/09/08 09:17:35;;;;;;;2.80;1.00;;;21.70;97.20;;;;;;1754981;28;20709;-72
2022/09/08 09:18:56;;;;;;;1.52;1.08;;;21.70;97.20;;;;;;1755504;28;20209;-72
2022/09/08 09:20:22;;;;;;;1.00;0.77;;;21.80;97.20;;;;;;1742494;28;20206;-72
2022/09/08 09:21:21;;;;;;;1.00;0.90;;;21.90;97.20;;;;;;1733917;28;20213;-73
2022/09/08 09:22:22;;;;;;;2.45;0.80;;;22.00;97.20;;;;;;1753250;28;20196;-73
2022/09/08 09:23:34;;;;;;;1.23;0.80;;;22.00;97.20;;;;;;1755599;28;20220;-72
2022/09/08 09:24:38;;;;;;;1.40;1.02;;;22.00;97.20;;;;;;1755569;28;20209;-72
2022/09/08 09:25:34;;;;;;;1.20;0.90;;;22.00;97.20;;;;;;1757649;28;20213;-72
2022/09/08 09:26:29;;;;;;;1.35;0.80;;;22.00;97.20;;;;;;1755881;28;20201;-72
2022/09/08 09:27:36;;;;;;;4.47;0.90;;;21.90;97.20;;;;;;1758632;28;20202;-72
2022/09/08 09:28:55;;;;;;;1.10;1.00;;;21.90;97.20;;;;;;1755999;28;20209;-73
2022/09/08 09:29:55;;;;;;;1.23;1.10;;;21.80;97.20;;;;;;1755979;28;20552;-73
2022/09/08 09:31:01;;;;;;;1.58;0.93;;;21.70;97.20;;;;;;1755806;28;20193;-73
2022/09/08 09:32:20;;;;;;;1.23;0.80;;;21.60;97.20;;;;;;1756936;28;20209;-74
2022/09/08 09:33:51;;;;;;;2.45;0.80;;;21.50;97.20;;;;;;1756833;28;20189;-73
2022/09/08 09:35:07;;;;;;;1.38;0.80;;;21.40;97.20;;;;;;1749984;28;20247;-73
2022/09/08 09:36:15;;;;;;;1.33;0.90;;;21.30;97.20;;;;;;1758474;28;20190;-73
2022/09/08 09:37:34;;;;;;;2.38;1.05;;;21.30;97.20;;;;;;1755647;28;20224;-73
2022/09/08 09:38:48;;;;;;;2.05;0.90;;;21.20;97.20;;;;;;1755633;28;20205;-73
2022/09/08 09:39:52;;;;;;;1.90;1.00;;;21.20;97.20;;;;;;1758720;28;20717;-73
2022/09/08 09:41:11;;;;;;;1.15;0.80;;;21.10;97.20;;;;;;1755348;28;20570;-73
2022/09/08 09:42:39;;;;;;;1.77;0.80;;;21.10;97.20;;;;;;1755414;28;20201;-73
2022/09/08 09:43:50;;;;;;;1.40;0.90;;;21.10;97.20;;;;;;1756421;28;20197;-74
2022/09/08 09:45:23;;;;;;;1.00;0.90;;;21.10;97.20;;;;;;1759186;28;20190;-72
2022/09/08 09:46:35;;;;;;;1.10;1.00;;;21.10;97.20;;;;;;1746254;28;20197;-72
2022/09/08 09:47:58;;;;;;;1.35;0.93;;;21.10;97.20;;;;;;1753450;28;20201;-72
2022/09/08 09:49:22;;;;;;;1.48;0.98;;;21.20;97.20;;;;;;1734465;28;20230;-73
2022/09/08 09:50:46;;;;;;;1.10;0.80;;;21.20;97.20;;;;;;1756092;28;20239;-74
2022/09/08 09:51:52;;;;;;;2.35;0.90;;;21.30;97.20;;;;;;1758193;28;20193;-72
2022/09/08 09:52:51;;;;;;;3.47;0.82;;;21.30;97.20;;;;;;1753775;28;20205;-72
2022/09/08 09:53:58;;;;;;;1.45;0.90;;;21.30;97.20;;;;;;1755216;28;20193;-73
2022/09/08 09:55:01;;;;;;;1.63;0.70;;;21.40;97.20;;;;;;1754088;28;20564;-73
2022/09/08 09:56:31;;;;;;;2.63;1.38;;;21.50;97.20;;;;;;1754913;28;20238;-73
2022/09/08 09:58:06;;;;;;;2.30;1.00;;;21.50;97.20;;;;;;1754692;28;20660;-73
2022/09/08 09:59:25;;;;;;;1.00;0.90;;;21.70;97.20;;;;;;1755608;28;20206;-74
2022/09/08 10:00:20;;;;;;;3.40;0.90;;;21.80;97.20;;;;;;1729224;28;20710;-74
2022/09/08 10:01:28;;;;;;;1.67;0.90;;;21.90;97.20;;;;;;1744961;28;20199;-73
2022/09/08 10:02:42;;;;;;;1.85;1.00;;;22.00;97.20;;;;;;1758642;28;20194;-73
2022/09/08 10:04:13;;;;;;;3.05;1.15;;;22.20;97.20;;;;;;1756888;28;20212;-73
2022/09/08 10:05:30;;;;;;;1.65;1.08;;;22.30;97.20;;;;;;1720049;28;20313;-73
2022/09/08 10:06:24;;;;;;;1.20;0.90;;;22.30;97.20;;;;;;1751010;28;20201;-74
2022/09/08 10:07:51;;;;;;;2.00;0.90;;;22.30;97.20;;;;;;1757592;28;20220;-74
2022/09/08 10:09:19;;;;;;;1.10;0.90;;;22.30;97.20;;;;;;1740150;28;20199;-73
2022/09/08 10:10:36;;;;;;;3.65;1.10;;;22.30;97.20;;;;;;1756195;28;20249;-74
2022/09/08 10:11:57;;;;;;;1.30;0.90;;;22.40;97.20;;;;;;1748206;28;20247;-74
2022/09/08 10:13:33;;;;;;;2.20;1.33;;;22.30;97.20;;;;;;1748239;28;20251;-73
2022/09/08 10:15:08;;;;;;;1.42;1.33;;;22.30;97.20;;;;;;1747901;28;20238;-74
2022/09/08 10:16:41;;;;;;;1.73;1.23;;;22.30;97.20;;;;;;1747529;28;20203;-72
2022/09/08 10:18:21;;;;;;;1.92;1.17;;;22.30;97.20;;;;;;1725412;28;20227;-73
2022/09/08 10:19:37;;;;;;;1.95;0.82;;;22.20;97.20;;;;;;1715174;28;20649;-74